Terminal Aerodrome Forecast
Issued by NWS

Home | Current Version | Previous Version | Text Only | Print | Product List | Glossary On
Versions: 1 2 3 4 5 6 7 8 9 10 11 12 13 14 15 16 17 18 19
000
FTUS43 KDLH 211137
TAFBRD
TAF
KBRD 211137Z 2112/2212 17015KT P6SM OVC030
     FM211800 17011KT P6SM -SHRA VCTS OVC009CB
     FM212200 20009KT P6SM -SHRA VCTS OVC014CB
     FM220300 25007KT P6SM BKN060
     FM220600 26006KT P6SM SCT060=

USA.gov is the U.S. government's official web portal to all federal, state and local government web resources and services.